Time;durP1;ratioP1;P1;durP2;ratioP2;P2;SDS_P1;SDS_P2;PMS_P1;PMS_P2;Temp;Humidity;BMP_temperature;BMP_pressure;BME280_temperature;BME280_humidity;BME280_pressure;Samples;Min_cycle;Max_cycle;Signal;HPM_P1;HPM_P2
2022/03/03 00:01:12;;;;;;;72.30;37.70;;;1.60;99.90;;;;;;5094763;28;20048;-73
2022/03/03 00:03:37;;;;;;;64.60;36.03;;;1.40;99.90;;;;;;5105015;28;20044;-73
2022/03/03 00:06:03;;;;;;;66.10;36.85;;;1.50;99.90;;;;;;5102607;28;20496;-73
2022/03/03 00:08:29;;;;;;;62.75;34.53;;;1.40;99.90;;;;;;5105081;28;20040;-73
2022/03/03 00:10:55;;;;;;;68.50;37.60;;;1.40;99.90;;;;;;5106050;28;20040;-73
2022/03/03 00:13:20;;;;;;;68.93;37.10;;;1.40;99.90;;;;;;5108035;28;20048;-73
2022/03/03 00:15:46;;;;;;;69.55;38.15;;;1.30;99.90;;;;;;5104279;28;20259;-73
2022/03/03 00:18:12;;;;;;;64.53;35.92;;;1.30;99.90;;;;;;5102468;28;20044;-73
2022/03/03 00:20:37;;;;;;;64.88;36.60;;;1.40;99.90;;;;;;5066433;28;20051;-73
2022/03/03 00:23:03;;;;;;;54.67;32.40;;;1.20;99.90;;;;;;5087660;28;20415;-73
2022/03/03 00:25:29;;;;;;;56.80;31.15;;;1.10;99.90;;;;;;5097450;28;20157;-73
2022/03/03 00:27:54;;;;;;;57.33;32.13;;;1.00;99.90;;;;;;5096768;28;20055;-73
2022/03/03 00:30:20;;;;;;;64.72;36.20;;;0.90;99.90;;;;;;5104057;28;20059;-73
2022/03/03 00:32:47;;;;;;;67.50;36.13;;;0.80;99.90;;;;;;5105519;28;20044;-73
2022/03/03 00:35:13;;;;;;;62.00;36.28;;;0.60;99.90;;;;;;5089679;28;20057;-73
2022/03/03 00:37:39;;;;;;;63.72;34.47;;;0.60;99.90;;;;;;5101653;28;20400;-73
2022/03/03 00:40:06;;;;;;;68.25;37.00;;;0.70;99.90;;;;;;5104969;28;20048;-73
2022/03/03 00:42:31;;;;;;;64.03;36.20;;;0.70;99.90;;;;;;5105491;28;20042;-73
2022/03/03 00:44:57;;;;;;;63.30;35.15;;;0.60;99.90;;;;;;5104645;28;20091;-73
2022/03/03 00:47:23;;;;;;;65.75;34.10;;;0.80;99.90;;;;;;5103552;28;20048;-73
2022/03/03 00:49:49;;;;;;;73.07;37.50;;;0.70;99.90;;;;;;5088492;28;20071;-73
2022/03/03 00:52:15;;;;;;;67.18;35.88;;;0.70;99.90;;;;;;5105176;28;20051;-73
2022/03/03 00:54:40;;;;;;;62.60;35.50;;;0.90;99.90;;;;;;5092461;28;20059;-73
2022/03/03 00:57:06;;;;;;;66.72;36.35;;;0.70;99.90;;;;;;5097530;28;20099;-73
2022/03/03 00:59:32;;;;;;;70.57;36.63;;;0.80;99.90;;;;;;5104448;28;20164;-73
2022/03/03 01:01:57;;;;;;;65.40;32.65;;;0.90;99.90;;;;;;5103699;28;20048;-73
2022/03/03 01:04:23;;;;;;;64.55;33.85;;;0.60;99.90;;;;;;5104977;28;20044;-73
2022/03/03 01:06:50;;;;;;;60.42;34.13;;;0.60;99.90;;;;;;5100997;28;20072;-73
2022/03/03 01:09:15;;;;;;;62.63;34.35;;;0.50;99.90;;;;;;5103763;28;20044;-73
2022/03/03 01:11:41;;;;;;;68.35;33.92;;;0.60;99.90;;;;;;5100748;28;20052;-73
2022/03/03 01:14:07;;;;;;;63.83;35.75;;;0.40;99.90;;;;;;5103383;28;20032;-73
2022/03/03 01:16:33;;;;;;;70.30;37.38;;;0.50;99.90;;;;;;5075618;28;20048;-73
2022/03/03 01:18:59;;;;;;;71.85;38.10;;;0.30;99.90;;;;;;5099794;28;20059;-72
2022/03/03 01:21:25;;;;;;;68.35;37.08;;;0.40;99.90;;;;;;5101365;28;20055;-73
2022/03/03 01:23:51;;;;;;;60.70;32.33;;;0.40;99.90;;;;;;5099304;28;20039;-73
2022/03/03 01:26:18;;;;;;;60.03;32.22;;;0.50;99.90;;;;;;5103703;28;20121;-73
2022/03/03 01:28:44;;;;;;;60.17;32.70;;;0.40;99.90;;;;;;5103911;28;20111;-73
2022/03/03 01:31:10;;;;;;;63.03;35.58;;;0.30;99.90;;;;;;5105954;28;20048;-73
2022/03/03 01:33:36;;;;;;;72.93;37.53;;;0.50;99.90;;;;;;5104434;28;20459;-73
2022/03/03 01:36:02;;;;;;;68.38;37.00;;;0.40;99.90;;;;;;5103842;28;20054;-73
2022/03/03 01:38:27;;;;;;;65.78;36.63;;;0.60;99.90;;;;;;5104004;28;20044;-73
2022/03/03 01:40:53;;;;;;;68.15;35.88;;;0.30;99.90;;;;;;5089020;28;20153;-73
2022/03/03 01:43:19;;;;;;;67.72;36.65;;;0.40;99.90;;;;;;5083436;28;20068;-73
2022/03/03 01:45:45;;;;;;;68.00;37.55;;;0.40;99.90;;;;;;5083405;28;20056;-73
2022/03/03 01:48:10;;;;;;;68.57;37.33;;;0.60;99.90;;;;;;5082803;28;20049;-73
2022/03/03 01:50:37;;;;;;;67.70;35.90;;;0.50;99.90;;;;;;5083463;28;20055;-73
2022/03/03 01:53:03;;;;;;;64.97;35.30;;;0.40;99.90;;;;;;5083504;28;20060;-73
2022/03/03 01:55:30;;;;;;;72.85;38.50;;;0.50;99.90;;;;;;5086304;28;20037;-73
2022/03/03 01:57:58;;;;;;;70.22;38.22;;;0.40;99.90;;;;;;5103333;28;20139;-73
2022/03/03 02:00:24;;;;;;;71.90;38.38;;;0.40;99.90;;;;;;5094415;28;20055;-73
2022/03/03 02:02:49;;;;;;;64.57;35.40;;;0.40;99.90;;;;;;5103411;28;20047;-73
2022/03/03 02:05:15;;;;;;;69.05;36.88;;;0.20;99.90;;;;;;5094447;28;20104;-73
2022/03/03 02:07:42;;;;;;;71.15;36.88;;;0.00;99.90;;;;;;5083224;28;20078;-73
2022/03/03 02:10:08;;;;;;;70.80;36.97;;;0.20;99.90;;;;;;5094285;28;20076;-73
2022/03/03 02:12:34;;;;;;;68.88;37.08;;;0.30;99.90;;;;;;5089313;28;20067;-73
2022/03/03 02:14:59;;;;;;;65.65;37.15;;;0.40;99.90;;;;;;5100625;28;20040;-73
2022/03/03 02:17:26;;;;;;;68.28;37.35;;;0.40;99.90;;;;;;5088257;28;20056;-73
2022/03/03 02:19:51;;;;;;;59.38;34.28;;;0.20;99.90;;;;;;5085083;28;20048;-73
2022/03/03 02:22:17;;;;;;;63.28;34.78;;;0.10;99.90;;;;;;5099017;28;20040;-73
2022/03/03 02:24:43;;;;;;;65.57;35.72;;;-0.20;99.90;;;;;;5104642;28;20089;-73
2022/03/03 02:27:10;;;;;;;62.45;35.28;;;-0.30;99.90;;;;;;5103139;28;20488;-73
2022/03/03 02:29:36;;;;;;;66.38;35.95;;;-0.40;99.90;;;;;;5104511;28;20060;-73
2022/03/03 02:32:04;;;;;;;61.28;34.58;;;-0.50;99.90;;;;;;5103256;28;20059;-73
2022/03/03 02:34:31;;;;;;;61.60;34.50;;;-0.30;99.90;;;;;;5103114;28;20055;-73
2022/03/03 02:36:57;;;;;;;65.15;35.90;;;-0.20;99.90;;;;;;5104208;28;20127;-73
2022/03/03 02:39:23;;;;;;;61.38;34.92;;;-0.10;99.90;;;;;;5102988;28;20102;-73
2022/03/03 02:41:48;;;;;;;67.35;37.33;;;-0.20;99.90;;;;;;5082965;28;20044;-73
2022/03/03 02:44:14;;;;;;;61.88;35.67;;;-0.10;99.90;;;;;;5083108;28;20128;-73
2022/03/03 02:46:40;;;;;;;62.17;33.33;;;-0.10;99.90;;;;;;5082645;28;20043;-73
2022/03/03 02:49:06;;;;;;;67.80;36.38;;;-0.10;99.90;;;;;;5082514;28;20501;-73
2022/03/03 02:51:32;;;;;;;70.13;36.70;;;-0.20;99.90;;;;;;5085717;28;20040;-73
2022/03/03 02:53:58;;;;;;;55.72;31.67;;;0.00;99.90;;;;;;5100677;28;20043;-73
2022/03/03 02:56:24;;;;;;;56.55;31.20;;;-0.30;99.90;;;;;;5096452;28;20048;-73
2022/03/03 02:58:49;;;;;;;59.50;32.63;;;-0.40;99.90;;;;;;5107333;28;20036;-73
2022/03/03 03:01:15;;;;;;;60.03;33.13;;;-0.60;99.90;;;;;;5106269;28;20047;-73
2022/03/03 03:03:41;;;;;;;59.63;32.05;;;-0.60;99.90;;;;;;5106344;28;20104;-73
2022/03/03 03:06:11;;;;;;;57.00;31.20;;;-0.80;99.90;;;;;;5107316;28;20408;-73
2022/03/03 03:08:36;;;;;;;60.30;33.53;;;-0.80;99.90;;;;;;5101010;28;20040;-73
2022/03/03 03:11:02;;;;;;;61.25;32.45;;;-0.90;99.90;;;;;;5105153;28;20044;-73
2022/03/03 03:13:28;;;;;;;59.50;32.58;;;-0.90;99.90;;;;;;5105199;28;20554;-73
2022/03/03 03:15:54;;;;;;;66.38;34.97;;;-0.70;99.90;;;;;;5108324;28;20036;-73
2022/03/03 03:18:21;;;;;;;68.55;36.53;;;-0.70;99.90;;;;;;5097110;28;20067;-73
2022/03/03 03:20:50;;;;;;;70.40;36.83;;;-0.60;99.90;;;;;;5096710;28;20115;-73
2022/03/03 03:23:19;;;;;;;65.78;36.92;;;-0.50;99.90;;;;;;5103074;28;20442;-73
2022/03/03 03:25:45;;;;;;;71.85;38.97;;;-0.20;99.90;;;;;;5106574;28;20040;-73
2022/03/03 03:28:12;;;;;;;74.20;39.30;;;-0.30;99.90;;;;;;5105549;28;20076;-73
2022/03/03 03:30:39;;;;;;;70.03;40.58;;;-0.10;99.90;;;;;;5105921;28;20055;-73
2022/03/03 03:33:05;;;;;;;74.32;40.05;;;0.00;99.90;;;;;;5099295;28;20132;-73
2022/03/03 03:35:31;;;;;;;72.35;38.20;;;0.30;99.90;;;;;;5106117;28;20051;-73
2022/03/03 03:37:57;;;;;;;70.40;36.10;;;0.20;99.90;;;;;;5106332;28;20044;-73
2022/03/03 03:40:23;;;;;;;72.78;36.47;;;0.10;99.90;;;;;;5105477;28;20047;-73
2022/03/03 03:42:49;;;;;;;72.38;38.65;;;0.20;99.90;;;;;;5105735;28;20044;-73
2022/03/03 03:45:14;;;;;;;67.72;36.90;;;0.00;99.90;;;;;;5106502;28;20087;-73
2022/03/03 03:47:41;;;;;;;67.82;37.75;;;0.00;99.90;;;;;;5107572;28;20106;-73
2022/03/03 03:50:09;;;;;;;77.68;38.38;;;0.00;99.90;;;;;;5104301;28;20048;-73
2022/03/03 03:52:36;;;;;;;70.25;39.53;;;0.30;99.90;;;;;;5094622;28;20376;-73
2022/03/03 03:55:04;;;;;;;68.78;37.83;;;0.40;99.90;;;;;;5100195;28;20063;-73
2022/03/03 03:57:30;;;;;;;70.68;38.75;;;0.50;99.90;;;;;;5098080;28;20075;-73
2022/03/03 03:59:56;;;;;;;71.63;39.65;;;0.40;99.90;;;;;;5099820;28;20046;-73
2022/03/03 04:02:22;;;;;;;72.20;38.80;;;0.50;99.90;;;;;;5105419;28;20040;-73
2022/03/03 04:04:48;;;;;;;73.30;38.35;;;0.70;99.90;;;;;;5105123;28;20044;-73
2022/03/03 04:07:14;;;;;;;75.35;39.42;;;0.50;99.90;;;;;;5107673;28;20126;-73
2022/03/03 04:09:39;;;;;;;69.72;38.72;;;0.60;99.90;;;;;;5106136;28;20074;-73
2022/03/03 04:12:06;;;;;;;72.85;39.60;;;0.30;99.90;;;;;;5099494;28;20085;-73
2022/03/03 04:14:32;;;;;;;67.13;37.20;;;0.50;99.90;;;;;;5104340;28;20052;-73
2022/03/03 04:16:57;;;;;;;67.75;36.70;;;0.30;99.90;;;;;;5096685;28;20077;-73
2022/03/03 04:19:23;;;;;;;66.10;37.65;;;0.00;99.90;;;;;;5106003;28;20052;-73
2022/03/03 04:21:49;;;;;;;70.45;36.63;;;-0.10;99.90;;;;;;5105509;28;20032;-73
2022/03/03 04:24:15;;;;;;;69.75;37.22;;;0.20;99.90;;;;;;5105383;28;20078;-73
2022/03/03 04:26:41;;;;;;;63.78;36.17;;;0.00;99.90;;;;;;5095027;28;20101;-73
2022/03/03 04:29:07;;;;;;;65.65;36.80;;;-0.10;99.90;;;;;;5105499;28;20040;-73
2022/03/03 04:31:33;;;;;;;70.10;37.25;;;0.30;99.90;;;;;;5103238;28;20496;-73
2022/03/03 04:33:58;;;;;;;68.57;37.22;;;0.30;99.90;;;;;;5096138;28;20047;-73
2022/03/03 04:36:24;;;;;;;66.55;36.50;;;0.10;99.90;;;;;;5102578;28;20039;-73
2022/03/03 04:38:50;;;;;;;66.68;36.33;;;0.30;99.90;;;;;;5079239;28;20044;-73
2022/03/03 04:41:20;;;;;;;63.92;35.75;;;0.30;99.90;;;;;;5090425;28;20101;-73
2022/03/03 04:43:46;;;;;;;53.55;30.27;;;0.30;99.90;;;;;;5105099;28;20044;-73
2022/03/03 04:46:11;;;;;;;66.18;39.17;;;0.20;99.90;;;;;;5088695;28;20047;-73
2022/03/03 04:48:37;;;;;;;66.68;38.80;;;0.20;99.90;;;;;;5100904;28;20044;-73
2022/03/03 04:51:03;;;;;;;63.65;35.78;;;0.20;99.90;;;;;;5098955;28;20048;-73
2022/03/03 04:53:30;;;;;;;63.65;36.55;;;0.20;99.90;;;;;;5093205;28;20405;-73
2022/03/03 04:55:57;;;;;;;61.17;35.40;;;0.20;99.90;;;;;;5103633;28;20123;-73
2022/03/03 04:58:23;;;;;;;62.90;35.28;;;0.30;99.90;;;;;;5104097;28;20134;-73
2022/03/03 05:00:49;;;;;;;62.20;35.95;;;0.40;99.90;;;;;;5103003;28;20040;-73
2022/03/03 05:03:15;;;;;;;60.22;35.97;;;0.40;99.90;;;;;;5094535;28;20054;-73
2022/03/03 05:05:41;;;;;;;66.30;36.05;;;0.50;99.90;;;;;;5103833;28;20103;-73
2022/03/03 05:08:07;;;;;;;58.00;34.42;;;0.40;99.90;;;;;;5103893;28;20048;-73
2022/03/03 05:10:33;;;;;;;65.35;35.92;;;0.50;99.90;;;;;;5101253;28;20043;-73
2022/03/03 05:12:58;;;;;;;64.85;36.45;;;0.40;99.90;;;;;;5098223;28;20089;-73
2022/03/03 05:15:25;;;;;;;64.18;35.45;;;0.30;99.90;;;;;;5104898;28;20360;-73
2022/03/03 05:17:50;;;;;;;63.17;36.40;;;0.20;99.90;;;;;;5096758;28;20063;-73
2022/03/03 05:20:16;;;;;;;67.13;35.28;;;0.30;99.90;;;;;;5103816;28;20051;-73
2022/03/03 05:22:42;;;;;;;60.72;36.22;;;0.30;99.90;;;;;;5104294;28;20047;-73
2022/03/03 05:25:10;;;;;;;60.92;35.67;;;0.30;99.90;;;;;;5104810;28;20069;-73
2022/03/03 05:27:37;;;;;;;63.58;34.70;;;0.20;99.90;;;;;;5095922;28;20116;-73
2022/03/03 05:30:04;;;;;;;63.80;35.60;;;0.10;99.90;;;;;;5103986;28;20056;-73
2022/03/03 05:32:30;;;;;;;63.85;38.03;;;0.10;99.90;;;;;;5103617;28;20561;-73
2022/03/03 05:34:55;;;;;;;64.15;37.63;;;0.10;99.90;;;;;;5049228;28;20056;-73
2022/03/03 05:37:24;;;;;;;61.20;36.22;;;0.30;99.90;;;;;;5102342;28;20055;-74
2022/03/03 05:39:51;;;;;;;60.92;34.78;;;0.10;99.90;;;;;;5103003;28;20127;-75
2022/03/03 05:42:19;;;;;;;61.95;34.45;;;0.10;99.90;;;;;;5103958;28;20065;-74
2022/03/03 05:44:46;;;;;;;63.10;35.85;;;0.00;99.90;;;;;;5054484;28;20455;-74
2022/03/03 05:47:13;;;;;;;57.53;33.40;;;-0.10;99.90;;;;;;5085820;28;20043;-73
2022/03/03 05:49:39;;;;;;;58.20;34.35;;;-0.30;99.90;;;;;;5092256;28;20101;-72
2022/03/03 05:52:05;;;;;;;57.80;32.53;;;-0.20;99.90;;;;;;5093920;28;20759;-73
2022/03/03 05:54:31;;;;;;;59.28;33.17;;;-0.40;99.90;;;;;;5097125;28;20477;-72
2022/03/03 05:57:00;;;;;;;63.95;36.63;;;-0.50;99.90;;;;;;5074169;28;20051;-72
2022/03/03 05:59:30;;;;;;;58.53;33.65;;;-0.40;99.90;;;;;;5094669;28;20052;-72
2022/03/03 06:01:57;;;;;;;58.88;34.28;;;-0.40;99.90;;;;;;5088440;28;20074;-75
2022/03/03 06:04:28;;;;;;;56.35;32.22;;;-0.50;99.90;;;;;;5094515;28;20048;-74
2022/03/03 06:07:01;;;;;;;55.63;33.80;;;-0.40;99.90;;;;;;5083564;28;20055;-77
2022/03/03 06:09:32;;;;;;;59.28;32.97;;;-0.40;99.90;;;;;;5092196;28;20068;-77
2022/03/03 06:12:19;;;;;;;60.45;34.28;;;-0.60;99.90;;;;;;5081117;28;20051;-74
2022/03/03 06:14:55;;;;;;;55.97;32.75;;;-0.60;99.90;;;;;;5090424;28;20052;-74
2022/03/03 06:17:25;;;;;;;55.25;32.45;;;-0.80;99.90;;;;;;5085917;28;20421;-74
2022/03/03 06:19:52;;;;;;;51.90;31.23;;;-0.70;99.90;;;;;;5083687;28;20071;-74
2022/03/03 06:22:19;;;;;;;55.15;31.45;;;-0.70;99.90;;;;;;5089585;28;20843;-73
2022/03/03 06:24:45;;;;;;;63.88;33.83;;;-1.00;99.90;;;;;;5089382;28;20108;-73
2022/03/03 06:27:12;;;;;;;58.35;33.05;;;-0.80;99.90;;;;;;5079599;28;20052;-73
2022/03/03 06:29:38;;;;;;;61.72;35.38;;;-0.80;99.90;;;;;;5091975;28;20063;-73
2022/03/03 06:32:05;;;;;;;63.33;34.88;;;-0.80;99.90;;;;;;5069914;28;20047;-74
2022/03/03 06:34:31;;;;;;;58.58;34.95;;;-0.80;99.90;;;;;;5058859;28;20070;-74
2022/03/03 06:36:57;;;;;;;62.60;34.88;;;-0.60;99.90;;;;;;5082211;28;20067;-74
2022/03/03 06:39:23;;;;;;;59.67;35.10;;;-0.50;99.90;;;;;;5079015;28;20032;-76
2022/03/03 06:41:49;;;;;;;59.78;36.15;;;-0.60;99.90;;;;;;5069224;28;20044;-75
2022/03/03 06:44:14;;;;;;;60.83;36.03;;;-0.30;99.90;;;;;;5098685;28;21106;-73
2022/03/03 06:46:40;;;;;;;65.57;35.28;;;-0.50;99.90;;;;;;5074130;28;20052;-74
2022/03/03 06:49:06;;;;;;;60.55;36.47;;;-0.50;99.90;;;;;;5091351;28;20055;-74
2022/03/03 06:51:40;;;;;;;59.97;34.75;;;-0.50;99.90;;;;;;5079198;28;20048;-73
2022/03/03 06:54:10;;;;;;;59.88;36.33;;;-0.50;99.90;;;;;;5094344;28;20052;-73
2022/03/03 06:56:46;;;;;;;59.13;35.60;;;-0.50;99.90;;;;;;5073261;28;20044;-74
2022/03/03 06:59:15;;;;;;;62.63;34.80;;;-0.40;99.90;;;;;;5095618;28;20074;-74
2022/03/03 07:01:42;;;;;;;64.78;37.78;;;-0.50;99.90;;;;;;5075718;28;20044;-75
2022/03/03 07:04:10;;;;;;;58.05;35.55;;;-0.30;99.90;;;;;;5092483;28;20087;-74
2022/03/03 07:06:37;;;;;;;56.88;33.58;;;-0.50;99.90;;;;;;5076449;28;20507;-74
2022/03/03 07:09:03;;;;;;;59.03;33.47;;;-0.40;99.90;;;;;;5089017;28;20087;-74
2022/03/03 07:11:29;;;;;;;60.38;35.42;;;-0.20;99.90;;;;;;5085971;28;20092;-74
2022/03/03 07:13:57;;;;;;;60.22;33.95;;;-0.40;99.90;;;;;;5092758;28;20040;-74
2022/03/03 07:16:46;;;;;;;58.28;35.92;;;-0.20;99.90;;;;;;5066622;28;20180;-72
2022/03/03 07:19:34;;;;;;;59.00;33.22;;;-0.10;99.90;;;;;;5077828;28;20072;-73
2022/03/03 07:22:14;;;;;;;58.58;34.20;;;-0.30;99.90;;;;;;5071734;28;20079;-73
2022/03/03 07:24:45;;;;;;;61.78;36.38;;;-0.10;99.90;;;;;;5084689;28;20056;-74
2022/03/03 07:27:22;;;;;;;62.58;36.85;;;-0.10;99.90;;;;;;5082037;28;20462;-74
2022/03/03 07:29:58;;;;;;;61.60;34.65;;;-0.20;99.90;;;;;;5089009;28;20055;-72
2022/03/03 07:32:38;;;;;;;59.88;35.40;;;0.00;99.90;;;;;;5083503;28;20064;-72
2022/03/03 07:35:12;;;;;;;66.57;34.95;;;0.20;99.90;;;;;;5073242;28;20051;-73
2022/03/03 07:37:53;;;;;;;67.28;36.50;;;0.50;99.90;;;;;;5065687;28;20464;-73
2022/03/03 07:40:19;;;;;;;78.65;38.47;;;0.60;99.90;;;;;;5079388;28;20071;-73
2022/03/03 07:42:45;;;;;;;67.20;37.63;;;0.40;99.90;;;;;;5084334;28;20055;-73
2022/03/03 07:45:11;;;;;;;62.55;37.30;;;0.60;99.90;;;;;;5088904;28;20036;-73
2022/03/03 07:47:39;;;;;;;60.30;36.40;;;0.60;99.90;;;;;;5091978;28;20052;-73
2022/03/03 07:50:06;;;;;;;60.00;36.50;;;0.50;99.90;;;;;;5092738;28;20558;-73
2022/03/03 07:52:33;;;;;;;61.00;35.17;;;0.60;99.90;;;;;;5085311;28;20058;-73
2022/03/03 07:54:59;;;;;;;60.30;37.05;;;0.90;99.90;;;;;;5096339;28;20135;-69
2022/03/03 07:57:32;;;;;;;64.07;36.25;;;0.80;99.90;;;;;;5083526;28;20098;-69
2022/03/03 08:00:05;;;;;;;59.85;37.35;;;1.10;99.90;;;;;;5084555;28;20077;-68
2022/03/03 08:02:32;;;;;;;58.30;35.97;;;1.20;99.90;;;;;;5087290;28;20107;-69
2022/03/03 08:05:05;;;;;;;60.83;36.22;;;1.20;99.90;;;;;;5091092;28;20036;-69
2022/03/03 08:07:39;;;;;;;57.58;35.63;;;1.40;99.90;;;;;;5103422;28;20051;-69
2022/03/03 08:10:06;;;;;;;54.72;35.17;;;1.40;99.90;;;;;;5084947;28;20459;-68
2022/03/03 08:12:33;;;;;;;57.00;34.40;;;1.50;99.90;;;;;;5083689;27;20138;-69
2022/03/03 08:14:59;;;;;;;58.70;34.78;;;1.70;99.90;;;;;;5100754;28;20078;-68
2022/03/03 08:17:26;;;;;;;58.50;35.10;;;1.80;99.90;;;;;;5075428;28;20087;-69
2022/03/03 08:19:54;;;;;;;57.80;34.97;;;1.90;99.90;;;;;;5081697;28;20045;-68
2022/03/03 08:22:27;;;;;;;59.30;34.75;;;2.10;99.90;;;;;;5082867;28;20363;-69
2022/03/03 08:24:57;;;;;;;53.30;33.60;;;1.90;99.90;;;;;;5091387;28;20103;-69
2022/03/03 08:27:25;;;;;;;54.67;34.13;;;2.00;99.90;;;;;;5087408;28;20051;-68
2022/03/03 08:29:52;;;;;;;55.47;33.50;;;2.20;99.90;;;;;;5092510;28;20056;-69
2022/03/03 08:32:19;;;;;;;55.40;33.78;;;2.20;99.90;;;;;;5074847;28;20039;-69
2022/03/03 08:35:17;;;;;;;54.97;34.13;;;2.30;99.90;;;;;;5078480;28;20044;-69
2022/03/03 08:37:49;;;;;;;56.92;32.78;;;2.50;99.90;;;;;;5068407;28;20049;-68
2022/03/03 08:40:18;;;;;;;53.85;32.53;;;2.40;99.90;;;;;;5095406;28;20075;-68
2022/03/03 08:42:55;;;;;;;51.15;31.38;;;2.60;99.90;;;;;;5070663;28;20044;-68
2022/03/03 08:45:23;;;;;;;54.28;32.55;;;2.60;99.90;;;;;;5089036;28;20044;-69
2022/03/03 08:47:59;;;;;;;54.13;31.27;;;2.60;99.90;;;;;;5078930;28;20075;-74
2022/03/03 08:50:28;;;;;;;51.58;31.27;;;2.60;99.90;;;;;;5083611;28;20051;-69
2022/03/03 08:52:55;;;;;;;46.60;29.85;;;2.70;99.90;;;;;;5091528;28;20056;-67
2022/03/03 08:55:22;;;;;;;49.17;31.83;;;2.80;99.90;;;;;;5080925;28;20117;-69
2022/03/03 08:57:47;;;;;;;49.83;33.08;;;2.80;99.90;;;;;;5084601;28;20056;-68
2022/03/03 09:00:13;;;;;;;50.63;31.67;;;2.90;99.90;;;;;;5096326;28;20063;-68
2022/03/03 09:02:40;;;;;;;49.20;31.60;;;3.10;99.90;;;;;;5081602;28;20273;-68
2022/03/03 09:05:07;;;;;;;47.60;30.85;;;3.20;99.90;;;;;;5096275;28;20051;-69
2022/03/03 09:07:33;;;;;;;51.35;32.25;;;3.30;99.90;;;;;;5094420;28;20052;-69
2022/03/03 09:09:59;;;;;;;47.13;29.80;;;3.50;99.90;;;;;;5095764;28;20048;-69
2022/03/03 09:12:25;;;;;;;42.33;29.75;;;3.60;99.90;;;;;;5097508;28;20135;-69
2022/03/03 09:14:50;;;;;;;45.10;28.63;;;3.60;99.90;;;;;;5086986;28;20036;-69
2022/03/03 09:17:16;;;;;;;43.22;28.70;;;3.60;99.90;;;;;;5076917;28;20071;-70
2022/03/03 09:19:42;;;;;;;45.97;29.98;;;3.70;99.90;;;;;;5068316;28;20048;-69
2022/03/03 09:22:08;;;;;;;45.33;28.55;;;3.90;99.90;;;;;;5074005;28;20063;-70
2022/03/03 09:24:34;;;;;;;45.58;31.30;;;4.10;99.90;;;;;;5075368;28;20040;-69
2022/03/03 09:26:59;;;;;;;44.80;29.52;;;4.20;99.90;;;;;;5081877;28;20067;-69
2022/03/03 09:29:26;;;;;;;45.13;27.38;;;4.30;99.90;;;;;;5089716;28;20055;-69
2022/03/03 09:31:52;;;;;;;43.38;27.80;;;4.30;99.90;;;;;;5082865;28;20169;-67
2022/03/03 09:34:18;;;;;;;40.90;27.30;;;4.40;99.90;;;;;;5058767;28;20040;-68
2022/03/03 09:36:44;;;;;;;40.75;26.85;;;4.50;99.90;;;;;;5080910;28;20165;-67
2022/03/03 09:39:09;;;;;;;39.67;27.33;;;4.60;99.90;;;;;;5095518;28;20051;-68
2022/03/03 09:41:35;;;;;;;40.88;27.40;;;4.70;99.90;;;;;;5083128;28;20055;-67
2022/03/03 09:44:01;;;;;;;41.50;27.65;;;4.80;99.90;;;;;;5098613;28;20052;-67
2022/03/03 09:46:27;;;;;;;36.75;24.73;;;5.00;99.90;;;;;;5089151;28;20084;-67
2022/03/03 09:48:52;;;;;;;37.92;25.33;;;5.10;99.90;;;;;;5089999;28;20040;-67
2022/03/03 09:51:18;;;;;;;36.88;24.67;;;5.10;99.90;;;;;;5086787;28;20139;-67
2022/03/03 09:53:44;;;;;;;36.15;24.23;;;5.30;99.90;;;;;;5085631;28;20048;-68
2022/03/03 09:56:10;;;;;;;37.72;25.67;;;5.40;99.90;;;;;;5084407;28;20868;-68
2022/03/03 09:58:35;;;;;;;36.97;24.98;;;5.40;99.90;;;;;;5079683;28;20052;-68
2022/03/03 10:01:02;;;;;;;33.55;24.60;;;5.40;99.90;;;;;;5060994;28;20052;-68
2022/03/03 10:03:33;;;;;;;30.17;22.10;;;5.60;99.90;;;;;;5094514;28;20110;-68
2022/03/03 10:06:00;;;;;;;35.25;23.30;;;5.70;99.90;;;;;;5086910;28;20059;-68
2022/03/03 10:08:28;;;;;;;33.03;23.60;;;5.70;99.90;;;;;;5079323;28;20044;-68
2022/03/03 10:10:58;;;;;;;31.77;21.65;;;5.70;99.90;;;;;;5081995;28;20109;-69
2022/03/03 10:13:25;;;;;;;36.13;23.73;;;5.80;99.90;;;;;;5081078;28;20070;-69
2022/03/03 10:15:53;;;;;;;30.75;22.27;;;5.90;99.90;;;;;;5081854;28;20076;-69
2022/03/03 10:18:20;;;;;;;30.08;21.95;;;5.90;99.90;;;;;;5086391;28;20541;-68
2022/03/03 10:20:52;;;;;;;29.65;22.05;;;6.10;99.90;;;;;;5077874;28;20051;-68
2022/03/03 10:23:23;;;;;;;31.23;22.00;;;6.20;99.90;;;;;;5102720;28;20040;-67
2022/03/03 10:25:52;;;;;;;31.50;22.42;;;6.20;99.90;;;;;;5084574;28;20036;-68
2022/03/03 10:28:21;;;;;;;29.80;21.75;;;6.20;99.90;;;;;;5085647;28;20059;-67
2022/03/03 10:30:58;;;;;;;32.80;21.88;;;6.30;99.90;;;;;;5085102;28;20052;-68
2022/03/03 10:33:26;;;;;;;34.47;23.08;;;6.50;99.90;;;;;;5082899;28;20489;-68
2022/03/03 10:36:08;;;;;;;30.95;21.25;;;6.50;99.90;;;;;;5073757;28;20103;-69
2022/03/03 10:38:43;;;;;;;30.20;20.85;;;6.60;99.90;;;;;;5110392;28;20077;-68
2022/03/03 10:41:46;;;;;;;30.38;22.17;;;6.70;99.90;;;;;;5076496;28;20056;-68
2022/03/03 10:44:22;;;;;;;30.17;20.75;;;6.80;99.90;;;;;;5093410;28;20047;-68
2022/03/03 10:47:10;;;;;;;30.65;19.90;;;7.00;99.90;;;;;;5087471;28;20063;-68
2022/03/03 10:49:38;;;;;;;29.20;20.08;;;7.00;99.90;;;;;;5087669;28;20443;-69
2022/03/03 10:52:19;;;;;;;25.10;19.45;;;7.00;99.90;;;;;;5080481;28;20119;-68
2022/03/03 10:54:47;;;;;;;27.63;18.75;;;7.10;99.90;;;;;;5084232;28;20221;-68
2022/03/03 10:57:32;;;;;;;27.10;19.02;;;7.20;99.90;;;;;;5077963;28;20060;-68
2022/03/03 11:00:06;;;;;;;25.08;18.17;;;7.30;99.90;;;;;;5080712;28;20711;-68
2022/03/03 11:02:33;;;;;;;24.83;18.27;;;7.50;99.90;;;;;;5055493;28;20171;-68
2022/03/03 11:04:59;;;;;;;25.95;19.05;;;7.60;99.90;;;;;;5086122;28;20040;-67
2022/03/03 11:07:25;;;;;;;26.70;19.02;;;7.70;99.90;;;;;;5076840;28;20163;-68
2022/03/03 11:09:52;;;;;;;26.08;19.17;;;7.90;99.90;;;;;;5085707;28;20135;-68
2022/03/03 11:12:19;;;;;;;22.80;17.33;;;7.90;99.90;;;;;;5086706;28;20047;-68
2022/03/03 11:14:46;;;;;;;22.05;17.35;;;8.20;99.90;;;;;;5092156;28;20278;-69
2022/03/03 11:17:13;;;;;;;25.75;17.85;;;8.20;99.90;;;;;;5089355;28;20044;-66
2022/03/03 11:19:40;;;;;;;26.15;18.75;;;8.20;99.90;;;;;;5092358;28;20048;-66
2022/03/03 11:22:06;;;;;;;26.90;19.30;;;8.50;99.90;;;;;;5074889;28;20486;-67
2022/03/03 11:24:37;;;;;;;29.23;19.10;;;8.70;99.90;;;;;;5072338;28;20036;-67
2022/03/03 11:27:04;;;;;;;26.50;19.42;;;8.60;99.90;;;;;;5094461;28;20135;-66
2022/03/03 11:29:32;;;;;;;24.13;17.35;;;8.70;99.90;;;;;;5096107;28;20066;-67
2022/03/03 11:32:09;;;;;;;26.92;19.73;;;8.70;99.90;;;;;;5081344;28;20047;-67
2022/03/03 11:34:35;;;;;;;28.15;21.42;;;8.90;99.90;;;;;;5083958;28;20051;-67
2022/03/03 11:37:15;;;;;;;30.42;19.55;;;8.90;99.90;;;;;;5091619;28;20051;-66
2022/03/03 11:39:49;;;;;;;25.13;18.45;;;9.10;99.90;;;;;;5083909;28;20060;-67
2022/03/03 11:42:30;;;;;;;28.35;19.95;;;9.20;99.90;;;;;;5085454;28;20047;-66
2022/03/03 11:45:06;;;;;;;28.90;20.38;;;9.30;99.90;;;;;;5094717;28;20127;-66
2022/03/03 11:47:34;;;;;;;27.33;20.58;;;9.30;99.90;;;;;;5089919;28;20051;-66
2022/03/03 11:50:03;;;;;;;28.10;19.83;;;9.20;99.90;;;;;;5091421;28;20130;-66
2022/03/03 11:52:29;;;;;;;27.77;19.40;;;9.40;99.90;;;;;;5077430;28;20052;-66
2022/03/03 11:54:57;;;;;;;27.52;18.98;;;9.50;99.90;;;;;;5080663;28;20151;-66
2022/03/03 11:57:27;;;;;;;30.80;21.90;;;9.50;99.90;;;;;;5085734;28;20051;-66
2022/03/03 12:00:00;;;;;;;30.50;21.70;;;9.60;99.90;;;;;;5089535;28;20066;-67
2022/03/03 12:02:30;;;;;;;29.98;21.55;;;9.80;99.90;;;;;;5081251;28;20083;-66
2022/03/03 12:05:27;;;;;;;32.15;21.98;;;9.90;99.90;;;;;;5094275;28;20109;-66
2022/03/03 12:08:05;;;;;;;30.67;21.02;;;9.90;99.90;;;;;;5076416;28;20121;-67
2022/03/03 12:10:32;;;;;;;31.77;21.85;;;10.00;99.90;;;;;;5092221;28;20051;-67
2022/03/03 12:13:26;;;;;;;31.30;21.60;;;10.00;99.90;;;;;;5080134;28;20471;-67
2022/03/03 12:16:19;;;;;;;28.95;21.42;;;10.00;99.90;;;;;;5089259;28;20056;-66
2022/03/03 12:19:09;;;;;;;32.55;22.65;;;10.00;99.90;;;;;;5083374;28;20048;-67
2022/03/03 12:21:43;;;;;;;31.33;21.25;;;10.00;99.90;;;;;;5083933;28;20492;-67
2022/03/03 12:24:14;;;;;;;30.55;20.95;;;10.20;99.90;;;;;;5086952;28;20056;-67
2022/03/03 12:26:55;;;;;;;30.05;22.05;;;10.40;99.90;;;;;;5076687;28;20233;-68
2022/03/03 12:29:52;;;;;;;29.27;21.58;;;10.60;99.90;;;;;;5089291;28;20048;-67
2022/03/03 12:32:38;;;;;;;29.25;20.60;;;10.70;99.90;;;;;;5088262;28;20081;-67
2022/03/03 12:35:18;;;;;;;25.00;19.30;;;11.00;99.90;;;;;;5078157;28;20063;-67
2022/03/03 12:37:46;;;;;;;34.78;19.25;;;11.00;99.90;;;;;;5089559;28;20055;-68
2022/03/03 12:40:15;;;;;;;22.55;17.02;;;11.30;99.90;;;;;;5094431;28;20511;-69